Time;durP1;ratioP1;P1;durP2;ratioP2;P2;SDS_P1;SDS_P2;PMS_P1;PMS_P2;Temp;Humidity;BMP_temperature;BMP_pressure;BME280_temperature;BME280_humidity;BME280_pressure;Samples;Min_cycle;Max_cycle;Signal;HPM_P1;HPM_P2
2022/02/18 00:00:41;;;;;;;15.63;3.33;;;5.30;99.90;;;;;;4934204;29;20039;-88
2022/02/18 00:03:07;;;;;;;16.48;3.00;;;5.30;99.90;;;;;;4966665;28;20044;-88
2022/02/18 00:05:32;;;;;;;18.92;3.70;;;5.20;99.90;;;;;;4953054;29;20530;-88
2022/02/18 00:07:58;;;;;;;12.32;2.90;;;5.20;99.90;;;;;;4951769;28;20023;-89
2022/02/18 00:10:23;;;;;;;16.75;2.95;;;5.20;99.90;;;;;;4936037;29;20094;-89
2022/02/18 00:12:49;;;;;;;21.85;3.47;;;5.20;99.90;;;;;;4953053;28;20079;-88
2022/02/18 00:15:15;;;;;;;16.17;3.47;;;5.10;99.90;;;;;;4937488;29;20027;-88
2022/02/18 00:17:40;;;;;;;13.55;2.42;;;5.10;99.90;;;;;;4953113;29;20031;-88
2022/02/18 00:20:07;;;;;;;15.85;2.45;;;5.10;99.90;;;;;;4950690;29;20073;-88
2022/02/18 00:22:34;;;;;;;17.88;2.60;;;5.10;99.90;;;;;;4952194;29;20027;-89
2022/02/18 00:25:00;;;;;;;15.57;3.47;;;5.10;99.90;;;;;;4951475;28;20047;-88
2022/02/18 00:27:25;;;;;;;18.08;2.85;;;5.10;99.90;;;;;;4965981;28;20380;-88
2022/02/18 00:29:51;;;;;;;13.52;2.47;;;5.10;99.90;;;;;;4952347;28;20033;-89
2022/02/18 00:32:17;;;;;;;16.23;2.90;;;5.10;99.90;;;;;;4950410;28;20384;-89
2022/02/18 00:34:43;;;;;;;16.58;2.58;;;5.00;99.90;;;;;;4933264;29;20052;-88
2022/02/18 00:37:08;;;;;;;15.05;3.28;;;4.90;99.90;;;;;;4931211;29;20052;-88
2022/02/18 00:39:34;;;;;;;12.00;2.47;;;4.90;99.90;;;;;;4930995;29;20384;-89
2022/02/18 00:42:00;;;;;;;16.52;2.45;;;4.90;99.90;;;;;;4928110;29;20425;-89
2022/02/18 00:44:25;;;;;;;16.10;2.92;;;4.90;99.90;;;;;;4930902;29;20031;-90
2022/02/18 00:46:52;;;;;;;17.02;2.50;;;4.80;99.90;;;;;;4932159;29;20031;-89
2022/02/18 00:49:19;;;;;;;16.73;2.55;;;4.80;99.90;;;;;;4930593;29;20062;-89
2022/02/18 00:51:45;;;;;;;16.52;3.00;;;4.80;99.90;;;;;;4930742;29;20039;-90
2022/02/18 00:54:11;;;;;;;17.52;2.47;;;4.80;99.90;;;;;;4956286;29;20110;-89
2022/02/18 00:56:40;;;;;;;18.92;2.70;;;4.70;99.90;;;;;;4957642;29;20035;-89
2022/02/18 00:59:09;;;;;;;16.40;2.85;;;4.70;99.90;;;;;;4932303;29;20032;-89
2022/02/18 01:01:35;;;;;;;14.10;2.40;;;4.70;99.90;;;;;;4947743;29;20034;-89
2022/02/18 01:04:01;;;;;;;10.77;2.25;;;4.60;99.90;;;;;;4919553;29;20118;-89
2022/02/18 01:06:28;;;;;;;16.88;2.80;;;4.70;99.90;;;;;;4944488;29;20044;-88
2022/02/18 01:08:54;;;;;;;15.20;2.17;;;4.70;99.90;;;;;;4949776;29;20059;-89
2022/02/18 01:11:20;;;;;;;10.68;2.15;;;4.80;99.90;;;;;;4955492;29;20087;-89
2022/02/18 01:13:46;;;;;;;17.52;3.05;;;4.70;99.90;;;;;;4944387;29;20036;-89
2022/02/18 01:16:13;;;;;;;17.60;3.15;;;4.70;99.90;;;;;;4960641;29;20039;-87
2022/02/18 01:18:38;;;;;;;15.05;2.83;;;4.70;99.90;;;;;;4945204;29;20363;-89
2022/02/18 01:21:04;;;;;;;19.65;3.15;;;4.70;99.90;;;;;;4947392;29;20031;-88
2022/02/18 01:23:30;;;;;;;13.00;2.95;;;4.70;99.90;;;;;;4929802;29;20507;-88
2022/02/18 01:25:56;;;;;;;18.48;2.80;;;4.60;99.90;;;;;;4933137;29;20127;-88
2022/02/18 01:28:21;;;;;;;16.35;2.92;;;4.60;99.90;;;;;;4915796;29;20035;-87
2022/02/18 01:30:47;;;;;;;12.73;2.75;;;4.50;99.90;;;;;;4933626;29;20456;-89
2022/02/18 01:33:13;;;;;;;13.05;2.47;;;4.50;99.90;;;;;;4913663;29;20048;-90
2022/02/18 01:35:39;;;;;;;14.43;2.97;;;4.40;99.90;;;;;;4931801;29;20047;-89
2022/02/18 01:38:06;;;;;;;16.90;3.05;;;4.40;99.90;;;;;;4948655;29;20111;-88
2022/02/18 01:40:32;;;;;;;17.45;3.75;;;4.40;99.90;;;;;;4930862;29;20371;-89
2022/02/18 01:42:59;;;;;;;22.58;3.60;;;4.40;99.90;;;;;;4933818;29;20334;-89
2022/02/18 01:45:25;;;;;;;16.38;2.90;;;4.40;99.90;;;;;;4931068;29;20031;-89
2022/02/18 01:47:51;;;;;;;19.42;3.38;;;4.40;99.90;;;;;;4946061;29;20043;-89
2022/02/18 01:50:17;;;;;;;18.33;2.90;;;4.40;99.90;;;;;;4929981;29;20372;-88
2022/02/18 01:52:47;;;;;;;16.48;2.53;;;4.40;99.90;;;;;;4931330;29;20032;-88
2022/02/18 01:55:14;;;;;;;14.57;3.45;;;4.50;99.90;;;;;;4931233;29;20063;-88
2022/02/18 01:57:49;;;;;;;18.23;2.70;;;4.50;99.90;;;;;;4946777;29;20031;-88
2022/02/18 02:00:17;;;;;;;11.55;2.55;;;4.50;99.90;;;;;;4926396;29;20528;-88
2022/02/18 02:02:43;;;;;;;19.17;2.15;;;4.50;99.90;;;;;;4932184;29;20035;-87
2022/02/18 02:05:10;;;;;;;14.38;2.90;;;4.50;99.90;;;;;;4935537;29;20035;-88
2022/02/18 02:07:38;;;;;;;12.90;2.40;;;4.50;99.90;;;;;;4937226;29;20068;-88
2022/02/18 02:10:05;;;;;;;13.43;2.95;;;4.50;99.90;;;;;;4951512;29;20043;-89
2022/02/18 02:12:36;;;;;;;13.00;2.60;;;4.60;99.90;;;;;;4933737;29;20372;-88
2022/02/18 02:15:05;;;;;;;17.48;2.55;;;4.50;99.90;;;;;;4917567;29;20105;-88
2022/02/18 02:17:32;;;;;;;14.48;2.47;;;4.60;99.90;;;;;;4914121;29;20030;-88
2022/02/18 02:19:57;;;;;;;14.23;2.50;;;4.60;99.90;;;;;;4951444;29;20032;-88
2022/02/18 02:22:27;;;;;;;13.00;2.20;;;4.60;99.90;;;;;;4936052;29;20026;-89
2022/02/18 02:24:53;;;;;;;12.10;2.67;;;4.60;99.90;;;;;;4949043;29;20173;-89
2022/02/18 02:27:23;;;;;;;13.80;2.28;;;4.60;99.90;;;;;;4919447;29;20135;-89
2022/02/18 02:29:50;;;;;;;13.75;2.03;;;4.70;99.90;;;;;;4951185;29;20023;-89
2022/02/18 02:32:16;;;;;;;9.25;2.15;;;4.70;99.90;;;;;;4935143;29;20480;-89
2022/02/18 02:34:42;;;;;;;11.80;1.70;;;4.70;99.90;;;;;;4933299;29;20146;-89
2022/02/18 02:37:08;;;;;;;10.98;2.08;;;4.70;99.90;;;;;;4933519;29;20023;-89
2022/02/18 02:39:34;;;;;;;11.48;2.55;;;4.80;99.90;;;;;;4937496;29;20390;-88
2022/02/18 02:42:01;;;;;;;9.23;2.00;;;4.70;99.90;;;;;;4935783;29;20055;-90
2022/02/18 02:44:27;;;;;;;8.90;1.95;;;4.70;99.90;;;;;;4935822;29;20029;-87
2022/02/18 02:46:53;;;;;;;14.23;1.90;;;4.70;99.90;;;;;;4933928;29;20044;-88
2022/02/18 02:49:19;;;;;;;12.27;2.60;;;4.70;99.90;;;;;;4936000;29;20119;-88
2022/02/18 02:51:46;;;;;;;9.77;2.20;;;4.70;99.90;;;;;;4933897;29;20043;-89
2022/02/18 02:54:12;;;;;;;12.35;2.85;;;4.70;99.90;;;;;;4935755;29;20509;-88
2022/02/18 02:56:37;;;;;;;10.25;2.55;;;4.80;99.90;;;;;;4934310;29;20047;-88
2022/02/18 02:59:03;;;;;;;12.15;3.80;;;4.80;99.90;;;;;;4933849;29;20028;-88
2022/02/18 03:01:29;;;;;;;15.35;3.47;;;4.80;99.90;;;;;;4946314;29;20114;-88
2022/02/18 03:03:54;;;;;;;15.55;3.95;;;4.80;99.90;;;;;;4949237;29;20468;-88
2022/02/18 03:06:20;;;;;;;18.75;5.22;;;4.90;99.90;;;;;;4935863;29;20053;-87
2022/02/18 03:08:46;;;;;;;17.65;4.18;;;4.80;99.90;;;;;;4950198;29;20022;-88
2022/02/18 03:11:15;;;;;;;17.13;4.45;;;4.90;99.90;;;;;;4917923;29;20406;-88
2022/02/18 03:13:45;;;;;;;22.67;6.10;;;4.90;99.90;;;;;;4917828;29;20489;-89
2022/02/18 03:16:12;;;;;;;27.70;7.50;;;4.80;99.90;;;;;;4947562;29;20031;-89
2022/02/18 03:18:38;;;;;;;21.25;5.43;;;4.90;99.90;;;;;;4953131;29;20103;-89
2022/02/18 03:21:04;;;;;;;22.67;5.85;;;4.80;99.90;;;;;;4952203;29;20039;-87
2022/02/18 03:23:31;;;;;;;20.35;5.40;;;4.90;99.90;;;;;;4937237;29;20035;-88
2022/02/18 03:25:56;;;;;;;16.23;4.32;;;4.90;99.90;;;;;;4917485;29;20028;-88
2022/02/18 03:28:22;;;;;;;19.35;5.97;;;4.80;99.90;;;;;;4934651;29;20075;-89
2022/02/18 03:30:48;;;;;;;16.05;4.50;;;4.90;99.90;;;;;;4933710;29;20024;-89
2022/02/18 03:33:14;;;;;;;17.98;4.15;;;4.90;99.90;;;;;;4929445;29;20135;-89
2022/02/18 03:35:40;;;;;;;15.20;4.38;;;4.90;99.90;;;;;;4936190;29;20027;-87
2022/02/18 03:38:06;;;;;;;15.98;4.13;;;5.00;99.90;;;;;;4933733;29;20035;-89
2022/02/18 03:40:32;;;;;;;17.52;4.10;;;4.90;99.90;;;;;;4935402;29;20028;-89
2022/02/18 03:42:57;;;;;;;14.15;3.17;;;5.00;99.90;;;;;;4933898;29;20024;-89
2022/02/18 03:45:23;;;;;;;19.80;3.70;;;5.00;99.90;;;;;;4932653;29;20385;-88
2022/02/18 03:47:49;;;;;;;13.70;3.40;;;5.00;99.90;;;;;;4933862;29;20031;-89
2022/02/18 03:50:15;;;;;;;12.85;3.13;;;5.10;99.90;;;;;;4932731;29;20039;-89
2022/02/18 03:52:40;;;;;;;13.57;3.40;;;5.10;99.90;;;;;;4946640;29;20074;-89
2022/02/18 03:55:07;;;;;;;11.88;2.80;;;5.10;99.90;;;;;;4933325;29;20216;-90
2022/02/18 03:57:32;;;;;;;12.57;2.70;;;5.10;99.90;;;;;;4918448;29;20535;-88
2022/02/18 03:59:58;;;;;;;11.50;2.58;;;5.10;99.90;;;;;;4932389;29;20035;-88
2022/02/18 04:02:23;;;;;;;11.93;2.50;;;5.10;99.90;;;;;;4933375;29;20056;-88
2022/02/18 04:04:49;;;;;;;13.38;2.53;;;5.10;99.90;;;;;;4932757;29;20079;-89
2022/02/18 04:07:15;;;;;;;13.10;3.30;;;5.10;99.90;;;;;;4932185;29;20376;-88
2022/02/18 04:09:40;;;;;;;12.05;2.60;;;5.10;99.90;;;;;;4949959;29;20035;-88
2022/02/18 04:12:06;;;;;;;18.75;3.38;;;5.10;99.90;;;;;;4934393;29;20051;-88
2022/02/18 04:14:32;;;;;;;17.30;3.20;;;5.10;99.90;;;;;;4933632;29;20051;-88
2022/02/18 04:16:58;;;;;;;15.45;2.95;;;5.10;99.90;;;;;;4933352;29;20369;-88
2022/02/18 04:19:23;;;;;;;13.20;3.05;;;5.10;99.90;;;;;;4934962;29;20369;-87
2022/02/18 04:21:49;;;;;;;10.68;2.88;;;5.10;99.90;;;;;;4950484;29;20570;-88
2022/02/18 04:24:15;;;;;;;12.27;3.20;;;5.20;99.90;;;;;;4935361;29;20038;-88
2022/02/18 04:26:41;;;;;;;12.60;3.53;;;5.20;99.90;;;;;;4949609;28;20046;-88
2022/02/18 04:29:06;;;;;;;12.18;2.70;;;5.20;99.90;;;;;;4930183;29;20148;-89
2022/02/18 04:31:32;;;;;;;19.33;4.00;;;5.20;99.90;;;;;;4934047;29;20372;-87
2022/02/18 04:33:58;;;;;;;16.48;4.63;;;5.20;99.90;;;;;;4950330;28;20123;-87
2022/02/18 04:36:24;;;;;;;18.42;4.70;;;5.20;99.90;;;;;;4944855;28;20050;-88
2022/02/18 04:38:50;;;;;;;18.02;3.50;;;5.30;99.90;;;;;;4933088;28;20027;-88
2022/02/18 04:41:16;;;;;;;17.10;3.95;;;5.30;99.90;;;;;;4938778;28;20026;-88
2022/02/18 04:43:42;;;;;;;16.85;4.20;;;5.30;99.90;;;;;;4953291;28;20455;-88
2022/02/18 04:46:08;;;;;;;16.58;4.45;;;5.30;99.90;;;;;;4956230;28;20090;-88
2022/02/18 04:48:33;;;;;;;19.27;4.57;;;5.40;99.90;;;;;;4971070;28;20038;-88
2022/02/18 04:50:59;;;;;;;25.92;7.82;;;5.40;99.90;;;;;;4943497;28;20034;-88
2022/02/18 04:53:25;;;;;;;18.13;4.20;;;5.40;99.90;;;;;;4967712;28;20023;-89
2022/02/18 04:55:50;;;;;;;18.48;4.38;;;5.40;99.90;;;;;;4971109;28;20042;-89
2022/02/18 04:58:16;;;;;;;20.67;4.28;;;5.50;99.90;;;;;;4973456;28;20579;-89
2022/02/18 05:00:42;;;;;;;23.77;4.40;;;5.40;99.90;;;;;;4922626;28;20058;-88
2022/02/18 05:03:07;;;;;;;19.20;4.22;;;5.50;99.90;;;;;;4934376;28;20030;-89
2022/02/18 05:05:33;;;;;;;20.05;4.50;;;5.50;99.90;;;;;;4970921;28;20081;-87
2022/02/18 05:07:59;;;;;;;19.45;4.45;;;5.50;99.90;;;;;;4954152;28;20145;-91
2022/02/18 05:10:25;;;;;;;22.50;4.63;;;5.50;99.90;;;;;;4973378;28;20023;-92
2022/02/18 05:12:50;;;;;;;21.08;4.25;;;5.50;99.90;;;;;;4958133;28;20475;-90
2022/02/18 05:15:16;;;;;;;20.20;3.97;;;5.60;99.90;;;;;;4955038;28;20027;-87
2022/02/18 05:17:46;;;;;;;18.80;4.85;;;5.60;99.90;;;;;;4970861;28;20026;-90
2022/02/18 05:20:12;;;;;;;24.58;4.20;;;5.60;99.90;;;;;;4973920;28;20039;-90
2022/02/18 05:22:38;;;;;;;16.80;4.70;;;5.60;99.90;;;;;;4955352;28;20038;-92
2022/02/18 05:25:04;;;;;;;19.98;4.40;;;5.60;99.90;;;;;;4967979;28;20046;-91
2022/02/18 05:27:30;;;;;;;21.10;4.55;;;5.70;99.90;;;;;;4989955;28;20027;-91
2022/02/18 05:29:55;;;;;;;25.52;5.28;;;5.70;99.90;;;;;;4971542;28;20470;-92
2022/02/18 05:32:21;;;;;;;21.42;4.53;;;5.70;99.90;;;;;;4954898;28;20109;-91
2022/02/18 05:34:49;;;;;;;15.65;4.43;;;5.70;99.90;;;;;;4928655;28;20161;-92
2022/02/18 05:37:14;;;;;;;20.95;4.90;;;5.70;99.90;;;;;;4962004;28;20033;-93
2022/02/18 05:39:40;;;;;;;17.92;4.50;;;5.70;99.90;;;;;;4959117;28;20471;-92
2022/02/18 05:42:06;;;;;;;26.02;4.82;;;5.70;99.90;;;;;;4938996;28;20447;-92
2022/02/18 05:44:32;;;;;;;17.33;5.05;;;5.70;99.90;;;;;;4971863;28;20031;-91
2022/02/18 05:46:59;;;;;;;23.25;5.40;;;5.70;99.90;;;;;;4970699;28;20481;-92
2022/02/18 05:49:25;;;;;;;22.15;5.38;;;5.80;99.90;;;;;;4967529;28;20023;-89
2022/02/18 05:51:51;;;;;;;29.67;5.65;;;5.70;99.90;;;;;;4956854;28;20456;-90
2022/02/18 05:54:17;;;;;;;18.85;4.75;;;5.70;99.90;;;;;;4972439;28;20172;-90
2022/02/18 05:56:42;;;;;;;23.00;4.93;;;5.70;99.90;;;;;;4965421;28;20423;-90
2022/02/18 05:59:08;;;;;;;21.55;5.80;;;5.70;99.90;;;;;;4956769;28;20048;-91
2022/02/18 06:01:34;;;;;;;18.65;5.00;;;5.80;99.90;;;;;;4957604;28;20027;-91
2022/02/18 06:03:59;;;;;;;17.75;5.00;;;5.70;99.90;;;;;;4957379;28;20419;-90
2022/02/18 06:06:27;;;;;;;20.98;4.75;;;5.70;99.90;;;;;;4927877;28;20486;-91
2022/02/18 06:08:53;;;;;;;21.30;5.22;;;5.70;99.90;;;;;;4949753;28;20023;-90
2022/02/18 06:11:19;;;;;;;23.92;4.80;;;5.70;99.90;;;;;;4966145;28;20514;-90
2022/02/18 06:13:44;;;;;;;24.75;5.55;;;5.60;99.90;;;;;;4944880;28;20452;-90
2022/02/18 06:16:10;;;;;;;30.55;6.25;;;5.60;99.90;;;;;;4948097;28;20131;-92
2022/02/18 06:18:38;;;;;;;16.95;4.28;;;5.60;99.90;;;;;;4966715;28;20031;-90
2022/02/18 06:21:03;;;;;;;22.48;5.28;;;5.60;99.90;;;;;;4953982;28;20496;-91
2022/02/18 06:23:29;;;;;;;28.00;6.90;;;5.60;99.90;;;;;;4956610;28;20058;-91
2022/02/18 06:25:55;;;;;;;19.98;5.68;;;5.60;99.90;;;;;;4937745;28;20054;-90
2022/02/18 06:28:21;;;;;;;23.02;6.40;;;5.60;99.90;;;;;;4969822;28;20083;-91
2022/02/18 06:30:49;;;;;;;25.00;6.28;;;5.60;99.90;;;;;;4971440;28;20062;-89
2022/02/18 06:33:14;;;;;;;25.67;7.05;;;5.60;99.90;;;;;;4968714;28;20086;-90
2022/02/18 06:35:42;;;;;;;27.23;7.65;;;5.60;99.90;;;;;;4947019;29;20614;-88
2022/02/18 06:38:08;;;;;;;22.00;7.35;;;5.60;99.90;;;;;;4931952;29;20481;-88
2022/02/18 06:40:35;;;;;;;28.65;7.97;;;5.60;99.90;;;;;;4925685;29;20126;-90
2022/02/18 06:43:20;;;;;;;20.08;7.25;;;5.70;99.90;;;;;;4948021;28;20087;-88
2022/02/18 06:45:46;;;;;;;21.58;7.53;;;5.70;99.90;;;;;;4927792;29;20110;-88
2022/02/18 06:48:14;;;;;;;26.08;8.00;;;5.70;99.90;;;;;;4928263;29;20118;-89
2022/02/18 06:50:45;;;;;;;29.95;8.52;;;5.70;99.90;;;;;;4932236;29;20032;-90
2022/02/18 06:53:13;;;;;;;28.97;9.00;;;5.70;99.90;;;;;;4933044;29;20024;-89
2022/02/18 06:55:39;;;;;;;28.10;9.38;;;5.70;99.90;;;;;;4948692;28;20028;-90
2022/02/18 06:58:25;;;;;;;;;;;;;;;;;;;;;
2022/02/18 07:00:54;;;;;;;25.30;8.32;;;5.80;99.90;;;;;;4936634;29;20465;-90
2022/02/18 07:03:23;;;;;;;25.08;8.50;;;5.80;99.90;;;;;;4959303;28;20417;-90
2022/02/18 07:05:49;;;;;;;31.95;9.00;;;5.80;99.90;;;;;;4935086;29;20079;-86
2022/02/18 07:08:15;;;;;;;33.45;9.40;;;5.90;99.90;;;;;;4933265;29;20425;-88
2022/02/18 07:10:41;;;;;;;28.90;7.85;;;5.90;99.90;;;;;;4955254;28;20024;-90
2022/02/18 07:13:08;;;;;;;28.58;8.00;;;5.90;99.90;;;;;;4942584;29;20490;-86
2022/02/18 07:15:34;;;;;;;30.33;7.60;;;5.90;99.90;;;;;;4930515;29;20024;-86
2022/02/18 07:18:01;;;;;;;27.30;7.20;;;6.00;99.90;;;;;;4934365;29;20118;-86
2022/02/18 07:20:33;;;;;;;22.73;7.28;;;6.00;99.90;;;;;;4934074;29;20031;-86
2022/02/18 07:23:07;;;;;;;;;;;6.00;99.90;;;;;;4919630;29;20039;-86
2022/02/18 07:25:34;;;;;;;29.27;7.28;;;6.00;99.90;;;;;;4953464;29;20351;-86
2022/02/18 07:28:00;;;;;;;32.63;7.28;;;6.10;99.90;;;;;;4944212;29;20502;-86
2022/02/18 07:30:26;;;;;;;26.33;7.20;;;6.10;99.90;;;;;;4926746;29;20024;-87
2022/02/18 07:33:20;;;;;;;30.10;7.25;;;6.10;99.90;;;;;;4931593;29;20043;-88
2022/02/18 07:35:49;;;;;;;28.45;6.85;;;6.20;99.90;;;;;;4959394;28;20055;-89
2022/02/18 07:38:19;;;;;;;23.77;6.43;;;6.20;99.90;;;;;;4950388;29;20031;-89
2022/02/18 07:40:53;;;;;;;27.83;6.38;;;6.20;99.90;;;;;;4911798;29;20024;-88
2022/02/18 07:43:28;;;;;;;29.33;6.55;;;6.20;99.90;;;;;;4916165;29;20034;-89
2022/02/18 07:46:21;;;;;;;29.77;7.28;;;6.30;99.90;;;;;;4936448;29;20027;-89
2022/02/18 07:48:52;;;;;;;30.05;6.00;;;6.30;99.90;;;;;;4932791;29;20251;-89
2022/02/18 07:51:29;;;;;;;29.83;6.90;;;6.30;99.90;;;;;;4931949;29;20023;-87
2022/02/18 07:54:03;;;;;;;21.15;5.18;;;6.30;99.90;;;;;;4920794;29;20480;-89
2022/02/18 07:56:48;;;;;;;28.73;6.85;;;6.30;99.90;;;;;;4928327;29;20610;-88
2022/02/18 07:59:18;;;;;;;29.27;6.22;;;6.40;99.90;;;;;;4936525;29;20106;-88
2022/02/18 08:01:49;;;;;;;26.23;5.75;;;6.40;99.90;;;;;;4935133;29;20023;-88
2022/02/18 08:04:19;;;;;;;24.08;5.60;;;6.40;99.90;;;;;;4935938;29;20038;-88
2022/02/18 08:06:49;;;;;;;28.33;5.77;;;6.40;99.90;;;;;;4936045;29;20039;-88
2022/02/18 08:09:26;;;;;;;26.60;5.22;;;6.40;99.90;;;;;;4935932;29;20271;-89
2022/02/18 08:11:59;;;;;;;26.75;6.25;;;6.40;99.90;;;;;;4936235;29;20028;-89
2022/02/18 08:14:50;;;;;;;25.50;5.80;;;6.40;99.90;;;;;;4936536;29;20043;-89
2022/02/18 08:17:25;;;;;;;30.85;5.85;;;6.40;99.90;;;;;;4950774;29;20046;-90
2022/02/18 08:20:11;;;;;;;24.52;5.40;;;6.50;99.90;;;;;;4938728;29;20081;-90
2022/02/18 08:22:49;;;;;;;23.73;5.32;;;6.40;99.90;;;;;;4953714;29;20051;-90
2022/02/18 08:25:26;;;;;;;28.35;6.38;;;6.50;99.90;;;;;;4947113;29;20036;-91
2022/02/18 08:28:17;;;;;;;28.88;6.40;;;6.50;99.90;;;;;;4953406;29;20036;-91
2022/02/18 08:30:47;;;;;;;25.08;5.63;;;6.50;99.90;;;;;;4927192;29;20071;-90
2022/02/18 08:33:17;;;;;;;28.45;5.70;;;6.60;99.90;;;;;;4944206;29;20031;-90
2022/02/18 08:35:43;;;;;;;27.88;6.43;;;6.50;99.90;;;;;;4945602;28;20052;-89
2022/02/18 08:38:08;;;;;;;23.77;5.88;;;6.60;99.90;;;;;;4959049;29;20047;-88
2022/02/18 08:40:35;;;;;;;28.45;6.22;;;6.60;99.90;;;;;;4928740;29;20031;-88
2022/02/18 08:43:01;;;;;;;18.33;5.00;;;6.60;99.90;;;;;;4960022;29;20031;-89
2022/02/18 08:45:38;;;;;;;;;;;;;;;;;;;;;
2022/02/18 08:48:04;;;;;;;17.38;4.20;;;6.70;99.90;;;;;;4943831;29;20127;-91
2022/02/18 08:50:33;;;;;;;18.65;4.68;;;6.70;99.90;;;;;;4941916;29;20084;-90
2022/02/18 08:53:01;;;;;;;17.95;5.72;;;6.70;99.90;;;;;;4940960;29;20118;-91
2022/02/18 08:55:31;;;;;;;19.15;5.45;;;6.80;99.90;;;;;;4936146;29;20060;-91
2022/02/18 08:58:00;;;;;;;21.77;4.88;;;6.80;99.90;;;;;;4930781;29;20028;-92
2022/02/18 09:00:26;;;;;;;14.95;5.15;;;6.80;99.90;;;;;;4918273;29;20028;-89
2022/02/18 09:02:52;;;;;;;23.20;5.63;;;6.80;99.90;;;;;;4946718;29;20091;-90
2022/02/18 09:05:22;;;;;;;13.13;4.68;;;6.90;99.90;;;;;;4933411;29;20040;-89
2022/02/18 09:07:48;;;;;;;17.08;5.18;;;6.90;99.90;;;;;;4948876;29;20031;-89
2022/02/18 09:10:16;;;;;;;15.32;4.88;;;7.00;99.90;;;;;;4935664;29;20024;-90
2022/02/18 09:12:49;;;;;;;14.85;4.82;;;7.00;99.90;;;;;;4931903;29;20056;-89
2022/02/18 09:15:27;;;;;;;19.08;5.38;;;7.10;99.90;;;;;;4928799;29;20028;-91
2022/02/18 09:18:01;;;;;;;17.17;4.72;;;7.20;99.90;;;;;;4931988;29;20028;-88
2022/02/18 09:20:40;;;;;;;;;;;;;;;;;;;;;
2022/02/18 09:23:06;;;;;;;13.25;4.60;;;7.20;99.90;;;;;;4935335;29;20022;-89
2022/02/18 09:25:43;;;;;;;;;;;;;;;;;;;;;
2022/02/18 09:28:10;;;;;;;15.70;4.25;;;7.30;99.90;;;;;;4933872;29;20042;-88
2022/02/18 09:30:56;;;;;;;;;;;;;;;;;;;;;
2022/02/18 09:33:28;;;;;;;12.73;4.45;;;7.40;99.90;;;;;;4933132;29;20395;-89
2022/02/18 09:35:56;;;;;;;16.42;4.47;;;7.50;99.90;;;;;;4934896;28;20563;-89
2022/02/18 09:38:32;;;;;;;;;;;;;;;;;;;;;
2022/02/18 09:41:06;;;;;;;10.02;3.83;;;7.60;99.90;;;;;;4935259;29;20019;-89
2022/02/18 09:43:36;;;;;;;10.68;4.60;;;7.60;99.90;;;;;;4943669;29;20031;-86
2022/02/18 09:46:10;;;;;;;13.20;4.15;;;7.70;99.90;;;;;;4952873;29;20027;-88
2022/02/18 09:48:38;;;;;;;10.98;4.32;;;7.70;99.90;;;;;;4964488;28;20032;-93
2022/02/18 09:51:05;;;;;;;15.45;4.93;;;7.80;99.90;;;;;;4931729;29;20749;-87
2022/02/18 09:53:31;;;;;;;18.70;5.45;;;7.90;99.90;;;;;;4949208;29;20416;-88
2022/02/18 09:56:32;;;;;;;21.60;5.70;;;8.00;99.90;;;;;;4929812;29;20036;-89
2022/02/18 09:59:10;;;;;;;14.68;4.63;;;8.10;99.90;;;;;;4919382;29;20032;-90
2022/02/18 10:01:54;;;;;;;15.18;4.75;;;8.10;99.90;;;;;;4931692;29;20031;-91
2022/02/18 10:04:24;;;;;;;11.25;4.45;;;8.20;99.90;;;;;;4937171;29;20035;-87
2022/02/18 10:06:49;;;;;;;16.85;4.93;;;8.30;99.90;;;;;;4930614;29;20066;-88
2022/02/18 10:09:39;;;;;;;13.68;4.97;;;8.30;99.90;;;;;;4925042;29;20023;-93
2022/02/18 10:12:29;;;;;;;13.60;4.55;;;8.40;99.90;;;;;;4932712;29;20042;-93
2022/02/18 10:18:17;;;;;;;15.07;5.75;;;8.60;99.90;;;;;;4922635;29;20028;-94
2022/02/18 10:20:55;;;;;;;;;;;;;;;;;;;;;
2022/02/18 10:23:32;;;;;;;13.18;5.30;;;8.70;99.90;;;;;;4929810;29;20473;-91
2022/02/18 10:26:02;;;;;;;14.98;5.10;;;8.80;99.90;;;;;;4951495;29;20023;-88
2022/02/18 10:28:28;;;;;;;12.85;5.38;;;8.80;99.90;;;;;;4950978;29;20170;-89
2022/02/18 10:31:05;;;;;;;15.65;5.97;;;8.90;99.90;;;;;;4930905;29;20020;-87
2022/02/18 10:33:36;;;;;;;12.30;5.28;;;8.90;99.90;;;;;;4949063;29;20028;-84
2022/02/18 10:36:16;;;;;;;;;;;;;;;;;;;;;
2022/02/18 10:38:42;;;;;;;15.88;5.65;;;9.00;99.90;;;;;;4936225;29;20050;-90
2022/02/18 10:41:28;;;;;;;16.50;4.68;;;9.00;99.90;;;;;;4934975;29;20103;-88
2022/02/18 10:44:04;;;;;;;12.88;5.65;;;9.10;99.90;;;;;;4949098;29;20058;-89
2022/02/18 10:46:55;;;;;;;12.98;5.40;;;9.10;99.90;;;;;;4916848;29;20086;-85
2022/02/18 10:49:26;;;;;;;12.02;5.63;;;9.10;99.90;;;;;;4933732;29;20031;-85
2022/02/18 10:51:54;;;;;;;15.40;5.50;;;9.20;99.90;;;;;;4937164;29;20158;-84
2022/02/18 10:54:32;;;;;;;12.05;6.10;;;9.20;99.90;;;;;;4937842;29;20369;-85
2022/02/18 10:57:17;;;;;;;17.83;6.60;;;9.20;99.90;;;;;;4953304;29;20012;-84
2022/02/18 10:59:43;;;;;;;15.45;5.80;;;9.30;99.90;;;;;;4937464;29;20099;-85
2022/02/18 11:02:09;;;;;;;15.60;6.03;;;9.30;99.90;;;;;;4938430;29;20630;-85
2022/02/18 11:04:35;;;;;;;14.20;6.28;;;9.30;99.90;;;;;;4952546;29;20038;-84
2022/02/18 11:07:14;;;;;;;14.65;6.22;;;9.30;99.90;;;;;;4953482;29;20322;-85
2022/02/18 11:09:42;;;;;;;17.90;5.93;;;9.40;99.90;;;;;;4938394;29;20412;-85
2022/02/18 11:12:12;;;;;;;11.80;5.53;;;9.40;99.90;;;;;;4953499;29;20118;-85
2022/02/18 11:14:47;;;;;;;9.90;5.50;;;9.50;99.90;;;;;;4936375;29;20177;-85
2022/02/18 11:17:14;;;;;;;17.67;5.50;;;9.50;99.90;;;;;;4938850;29;20019;-84
2022/02/18 11:19:43;;;;;;;14.80;6.28;;;9.60;99.90;;;;;;4937957;29;20034;-85
2022/02/18 11:22:09;;;;;;;12.00;5.40;;;9.70;99.90;;;;;;4936901;29;20080;-85
2022/02/18 11:24:35;;;;;;;10.32;5.45;;;9.70;99.90;;;;;;4919705;29;20059;-85
2022/02/18 11:27:03;;;;;;;13.55;5.53;;;9.70;99.90;;;;;;4938349;29;20028;-84
2022/02/18 11:29:35;;;;;;;10.80;5.60;;;9.70;99.90;;;;;;4938188;29;20022;-85
2022/02/18 11:32:10;;;;;;;10.60;5.28;;;9.80;99.90;;;;;;4938345;29;20030;-85
2022/02/18 11:35:04;;;;;;;12.40;5.93;;;9.80;99.90;;;;;;4935991;29;20028;-85
2022/02/18 11:37:48;;;;;;;13.07;4.93;;;9.80;99.90;;;;;;4950906;29;21577;-85
2022/02/18 11:40:22;;;;;;;10.52;5.00;;;9.90;99.90;;;;;;4945660;29;20032;-85
2022/02/18 11:43:15;;;;;;;11.35;4.97;;;10.00;99.90;;;;;;4949087;29;20016;-84
2022/02/18 11:45:41;;;;;;;10.27;4.93;;;10.00;99.90;;;;;;4946134;29;20054;-85
2022/02/18 11:48:09;;;;;;;11.52;4.88;;;10.00;99.90;;;;;;4932105;29;20028;-86
2022/02/18 11:50:37;;;;;;;8.02;4.47;;;10.10;99.90;;;;;;4933712;29;20059;-89
2022/02/18 11:53:06;;;;;;;11.02;4.50;;;10.20;99.90;;;;;;4949836;29;20082;-85
2022/02/18 11:55:35;;;;;;;8.23;4.30;;;10.20;99.90;;;;;;4917795;29;20028;-86
2022/02/18 11:58:14;;;;;;;8.63;4.22;;;10.30;99.90;;;;;;4933953;29;20341;-85
2022/02/18 12:00:50;;;;;;;9.77;4.30;;;10.40;99.90;;;;;;4945631;29;20035;-85
2022/02/18 12:03:21;;;;;;;8.50;4.15;;;10.40;99.90;;;;;;4951869;29;20026;-85
2022/02/18 12:06:13;;;;;;;7.60;3.95;;;10.50;99.90;;;;;;4934111;29;20127;-85
2022/02/18 12:08:40;;;;;;;7.13;3.80;;;10.50;99.90;;;;;;4948600;29;20028;-86
2022/02/18 12:11:08;;;;;;;8.50;3.50;;;10.60;99.90;;;;;;4934477;29;20074;-87
2022/02/18 12:13:56;;;;;;;7.60;3.67;;;10.60;99.90;;;;;;4947025;29;20031;-86
2022/02/18 12:16:26;;;;;;;7.07;3.20;;;10.70;99.90;;;;;;4912676;29;20079;-86
2022/02/18 12:19:24;;;;;;;7.60;3.85;;;10.70;99.90;;;;;;4948400;29;20024;-88
2022/02/18 12:21:55;;;;;;;6.57;3.28;;;10.70;99.90;;;;;;4931474;29;20035;-84
2022/02/18 12:24:33;;;;;;;;;;;10.80;99.90;;;;;;4947743;29;20432;-84
2022/02/18 12:27:24;;;;;;;7.85;2.83;;;10.80;99.90;;;;;;4933568;29;19911;-84
2022/02/18 12:29:53;;;;;;;5.78;2.90;;;10.80;99.90;;;;;;4931893;29;20138;-85
2022/02/18 12:32:20;;;;;;;6.82;3.17;;;10.90;99.90;;;;;;4948774;29;20135;-86
2022/02/18 12:35:06;;;;;;;6.80;2.35;;;10.90;99.90;;;;;;4931796;28;20123;-86
2022/02/18 12:37:36;;;;;;;6.03;2.90;;;10.90;99.90;;;;;;4965293;28;20019;-86
2022/02/18 12:40:16;;;;;;;6.80;2.72;;;11.00;99.90;;;;;;4954661;28;20027;-86
2022/02/18 12:42:42;;;;;;;6.78;2.88;;;11.00;99.90;;;;;;4955877;28;20488;-87
2022/02/18 12:45:11;;;;;;;7.65;3.10;;;10.90;99.90;;;;;;4971560;28;20026;-86
2022/02/18 12:47:49;;;;;;;5.53;2.90;;;11.00;99.90;;;;;;4953301;28;20023;-87
2022/02/18 12:50:30;;;;;;;6.03;3.08;;;10.90;99.90;;;;;;4955089;28;20097;-88
2022/02/18 12:53:04;;;;;;;7.05;3.22;;;10.90;99.90;;;;;;4951987;28;20057;-89
2022/02/18 12:55:40;;;;;;;5.65;2.63;;;10.90;99.90;;;;;;4956254;28;20085;-87
2022/02/18 12:58:23;;;;;;;7.97;3.00;;;10.90;99.90;;;;;;4954123;28;20019;-88
2022/02/18 13:01:14;;;;;;;6.80;2.55;;;10.90;99.90;;;;;;4954102;28;20014;-87
2022/02/18 13:03:51;;;;;;;6.95;2.97;;;10.90;99.90;;;;;;4955145;28;20173;-89
2022/02/18 13:06:27;;;;;;;;;;;;;;;;;;;;;
2022/02/18 13:09:05;;;;;;;6.68;1.70;;;10.70;99.90;;;;;;4972207;28;20023;-89
2022/02/18 13:11:49;;;;;;;;;;;;;;;;;;;;;
2022/02/18 13:14:20;;;;;;;7.43;1.50;;;10.50;99.90;;;;;;4969379;28;20023;-88
2022/02/18 13:17:01;;;;;;;;;;;;;;;;;;;;;